sensor_id;sensor_type;location;lat;lon;timestamp;P1;durP1;ratioP1;P2;durP2;ratioP2
43823;SDS011;29470;53.550;9.926;2023-02-10T00:00:53;53.15;;;20.73;;
43823;SDS011;29470;53.550;9.926;2023-02-10T00:05:56;50.97;;;19.85;;
43823;SDS011;29470;53.550;9.926;2023-02-10T00:11:00;52.90;;;21.08;;
43823;SDS011;29470;53.550;9.926;2023-02-10T00:16:06;50.20;;;19.02;;
43823;SDS011;29470;53.550;9.926;2023-02-10T00:21:12;57.33;;;20.73;;
43823;SDS011;29470;53.550;9.926;2023-02-10T00:26:16;54.63;;;19.42;;
43823;SDS011;29470;53.550;9.926;2023-02-10T00:31:21;45.45;;;18.65;;
43823;SDS011;29470;53.550;9.926;2023-02-10T00:36:24;44.85;;;19.20;;
43823;SDS011;29470;53.550;9.926;2023-02-10T00:41:27;54.45;;;20.00;;
43823;SDS011;29470;53.550;9.926;2023-02-10T00:46:31;41.92;;;19.35;;
43823;SDS011;29470;53.550;9.926;2023-02-10T00:51:34;53.45;;;19.33;;
43823;SDS011;29470;53.550;9.926;2023-02-10T00:56:37;51.80;;;19.70;;
43823;SDS011;29470;53.550;9.926;2023-02-10T01:01:41;52.03;;;20.92;;
43823;SDS011;29470;53.550;9.926;2023-02-10T01:06:44;52.08;;;19.80;;
43823;SDS011;29470;53.550;9.926;2023-02-10T01:11:46;55.25;;;19.83;;
43823;SDS011;29470;53.550;9.926;2023-02-10T01:16:50;47.88;;;18.48;;
43823;SDS011;29470;53.550;9.926;2023-02-10T01:21:53;48.90;;;19.92;;
43823;SDS011;29470;53.550;9.926;2023-02-10T01:26:56;52.13;;;19.38;;
43823;SDS011;29470;53.550;9.926;2023-02-10T01:32:00;45.92;;;18.55;;
43823;SDS011;29470;53.550;9.926;2023-02-10T01:37:03;52.47;;;18.73;;
43823;SDS011;29470;53.550;9.926;2023-02-10T01:42:08;37.58;;;16.27;;
43823;SDS011;29470;53.550;9.926;2023-02-10T01:52:20;45.33;;;17.70;;
43823;SDS011;29470;53.550;9.926;2023-02-10T01:57:29;47.80;;;17.83;;
43823;SDS011;29470;53.550;9.926;2023-02-10T02:02:34;45.35;;;16.83;;
43823;SDS011;29470;53.550;9.926;2023-02-10T02:07:38;45.53;;;17.60;;
43823;SDS011;29470;53.550;9.926;2023-02-10T02:12:45;46.63;;;17.55;;
43823;SDS011;29470;53.550;9.926;2023-02-10T02:17:59;41.53;;;16.60;;
43823;SDS011;29470;53.550;9.926;2023-02-10T02:28:58;39.90;;;15.70;;
43823;SDS011;29470;53.550;9.926;2023-02-10T02:34:15;42.13;;;16.05;;
43823;SDS011;29470;53.550;9.926;2023-02-10T02:39:26;41.95;;;16.17;;
43823;SDS011;29470;53.550;9.926;2023-02-10T02:44:30;47.40;;;17.05;;
43823;SDS011;29470;53.550;9.926;2023-02-10T02:49:36;37.78;;;16.42;;
43823;SDS011;29470;53.550;9.926;2023-02-10T02:54:45;45.67;;;16.48;;
43823;SDS011;29470;53.550;9.926;2023-02-10T02:59:55;42.42;;;16.25;;
43823;SDS011;29470;53.550;9.926;2023-02-10T03:05:07;42.08;;;16.77;;
43823;SDS011;29470;53.550;9.926;2023-02-10T03:10:11;44.60;;;16.95;;
43823;SDS011;29470;53.550;9.926;2023-02-10T03:15:14;47.45;;;17.63;;
43823;SDS011;29470;53.550;9.926;2023-02-10T03:20:18;44.45;;;17.50;;
43823;SDS011;29470;53.550;9.926;2023-02-10T03:25:21;43.50;;;16.35;;
43823;SDS011;29470;53.550;9.926;2023-02-10T03:30:23;46.45;;;18.77;;
43823;SDS011;29470;53.550;9.926;2023-02-10T03:35:28;41.03;;;17.15;;
43823;SDS011;29470;53.550;9.926;2023-02-10T03:40:31;45.63;;;17.92;;
43823;SDS011;29470;53.550;9.926;2023-02-10T03:45:34;45.88;;;18.55;;
43823;SDS011;29470;53.550;9.926;2023-02-10T03:50:41;40.83;;;18.52;;
43823;SDS011;29470;53.550;9.926;2023-02-10T03:55:44;50.03;;;18.80;;
43823;SDS011;29470;53.550;9.926;2023-02-10T04:00:47;45.50;;;18.63;;
43823;SDS011;29470;53.550;9.926;2023-02-10T04:05:51;51.10;;;18.92;;
43823;SDS011;29470;53.550;9.926;2023-02-10T04:10:57;47.97;;;19.13;;
43823;SDS011;29470;53.550;9.926;2023-02-10T04:16:00;45.47;;;18.90;;
43823;SDS011;29470;53.550;9.926;2023-02-10T04:21:06;47.42;;;19.38;;
43823;SDS011;29470;53.550;9.926;2023-02-10T04:26:10;44.75;;;19.92;;
43823;SDS011;29470;53.550;9.926;2023-02-10T04:31:13;46.40;;;18.30;;
43823;SDS011;29470;53.550;9.926;2023-02-10T04:36:18;46.15;;;19.70;;
43823;SDS011;29470;53.550;9.926;2023-02-10T04:41:20;48.00;;;19.63;;
43823;SDS011;29470;53.550;9.926;2023-02-10T04:46:23;45.70;;;18.02;;
43823;SDS011;29470;53.550;9.926;2023-02-10T04:51:27;49.50;;;18.33;;
43823;SDS011;29470;53.550;9.926;2023-02-10T04:56:30;41.28;;;16.80;;
43823;SDS011;29470;53.550;9.926;2023-02-10T05:01:33;44.85;;;19.60;;
43823;SDS011;29470;53.550;9.926;2023-02-10T05:06:37;48.30;;;18.00;;
43823;SDS011;29470;53.550;9.926;2023-02-10T05:11:40;45.42;;;17.63;;
43823;SDS011;29470;53.550;9.926;2023-02-10T05:16:43;39.83;;;17.92;;
43823;SDS011;29470;53.550;9.926;2023-02-10T05:21:47;46.55;;;16.73;;
43823;SDS011;29470;53.550;9.926;2023-02-10T05:26:50;47.38;;;17.67;;
43823;SDS011;29470;53.550;9.926;2023-02-10T05:31:53;45.78;;;17.92;;
43823;SDS011;29470;53.550;9.926;2023-02-10T05:36:57;41.10;;;17.23;;
43823;SDS011;29470;53.550;9.926;2023-02-10T05:42:00;40.55;;;15.77;;
43823;SDS011;29470;53.550;9.926;2023-02-10T05:47:03;42.50;;;17.17;;
43823;SDS011;29470;53.550;9.926;2023-02-10T05:52:07;42.47;;;17.13;;
43823;SDS011;29470;53.550;9.926;2023-02-10T05:57:10;41.20;;;17.15;;
43823;SDS011;29470;53.550;9.926;2023-02-10T06:02:13;43.47;;;16.10;;
43823;SDS011;29470;53.550;9.926;2023-02-10T06:07:17;40.38;;;16.40;;
43823;SDS011;29470;53.550;9.926;2023-02-10T06:12:20;42.92;;;16.33;;
43823;SDS011;29470;53.550;9.926;2023-02-10T06:17:23;44.67;;;16.13;;
43823;SDS011;29470;53.550;9.926;2023-02-10T06:22:28;46.22;;;18.60;;
43823;SDS011;29470;53.550;9.926;2023-02-10T06:27:31;44.35;;;16.85;;
43823;SDS011;29470;53.550;9.926;2023-02-10T06:32:34;44.33;;;17.63;;
43823;SDS011;29470;53.550;9.926;2023-02-10T06:37:38;40.70;;;17.17;;
43823;SDS011;29470;53.550;9.926;2023-02-10T06:42:41;37.67;;;16.40;;
43823;SDS011;29470;53.550;9.926;2023-02-10T06:47:44;45.97;;;17.60;;
43823;SDS011;29470;53.550;9.926;2023-02-10T06:52:48;41.42;;;16.95;;
43823;SDS011;29470;53.550;9.926;2023-02-10T06:57:52;44.05;;;17.70;;
43823;SDS011;29470;53.550;9.926;2023-02-10T07:02:55;43.25;;;17.60;;
43823;SDS011;29470;53.550;9.926;2023-02-10T07:07:59;44.63;;;17.42;;
43823;SDS011;29470;53.550;9.926;2023-02-10T07:13:03;42.58;;;17.65;;
43823;SDS011;29470;53.550;9.926;2023-02-10T07:18:06;464.48;;;62.47;;
43823;SDS011;29470;53.550;9.926;2023-02-10T07:23:10;147.93;;;26.42;;
43823;SDS011;29470;53.550;9.926;2023-02-10T07:28:14;55.80;;;19.95;;
43823;SDS011;29470;53.550;9.926;2023-02-10T07:33:17;62.45;;;20.85;;
43823;SDS011;29470;53.550;9.926;2023-02-10T07:38:21;54.35;;;18.83;;
43823;SDS011;29470;53.550;9.926;2023-02-10T07:43:23;47.88;;;18.17;;
43823;SDS011;29470;53.550;9.926;2023-02-10T07:48:37;42.10;;;17.15;;
43823;SDS011;29470;53.550;9.926;2023-02-10T07:53:41;45.63;;;17.50;;
43823;SDS011;29470;53.550;9.926;2023-02-10T07:58:44;42.90;;;17.45;;
43823;SDS011;29470;53.550;9.926;2023-02-10T08:03:46;42.97;;;17.10;;
43823;SDS011;29470;53.550;9.926;2023-02-10T08:08:50;49.92;;;18.52;;
43823;SDS011;29470;53.550;9.926;2023-02-10T08:13:53;41.45;;;16.90;;
43823;SDS011;29470;53.550;9.926;2023-02-10T08:18:57;42.35;;;17.27;;
43823;SDS011;29470;53.550;9.926;2023-02-10T08:24:01;42.38;;;16.83;;
43823;SDS011;29470;53.550;9.926;2023-02-10T08:29:04;46.90;;;17.20;;
43823;SDS011;29470;53.550;9.926;2023-02-10T08:34:12;38.38;;;16.65;;
43823;SDS011;29470;53.550;9.926;2023-02-10T08:39:18;38.58;;;16.02;;
43823;SDS011;29470;53.550;9.926;2023-02-10T08:44:22;40.03;;;15.52;;
43823;SDS011;29470;53.550;9.926;2023-02-10T08:49:25;47.10;;;17.00;;
43823;SDS011;29470;53.550;9.926;2023-02-10T08:54:30;39.65;;;14.88;;
43823;SDS011;29470;53.550;9.926;2023-02-10T08:59:33;40.38;;;15.50;;
43823;SDS011;29470;53.550;9.926;2023-02-10T09:04:36;39.05;;;15.40;;
43823;SDS011;29470;53.550;9.926;2023-02-10T09:09:40;46.53;;;16.23;;
43823;SDS011;29470;53.550;9.926;2023-02-10T09:14:44;41.83;;;16.60;;
43823;SDS011;29470;53.550;9.926;2023-02-10T09:19:47;43.90;;;17.40;;
43823;SDS011;29470;53.550;9.926;2023-02-10T09:24:51;50.25;;;16.80;;
43823;SDS011;29470;53.550;9.926;2023-02-10T09:29:55;46.22;;;17.60;;
43823;SDS011;29470;53.550;9.926;2023-02-10T09:34:58;37.10;;;16.63;;
43823;SDS011;29470;53.550;9.926;2023-02-10T09:40:02;45.95;;;18.35;;
43823;SDS011;29470;53.550;9.926;2023-02-10T09:45:10;44.65;;;17.60;;
43823;SDS011;29470;53.550;9.926;2023-02-10T09:50:26;47.38;;;18.52;;
43823;SDS011;29470;53.550;9.926;2023-02-10T09:55:38;38.63;;;16.92;;
43823;SDS011;29470;53.550;9.926;2023-02-10T10:00:46;46.30;;;17.40;;
43823;SDS011;29470;53.550;9.926;2023-02-10T10:05:55;33.40;;;16.40;;
43823;SDS011;29470;53.550;9.926;2023-02-10T10:11:09;33.58;;;16.60;;
43823;SDS011;29470;53.550;9.926;2023-02-10T10:16:27;36.92;;;17.65;;
43823;SDS011;29470;53.550;9.926;2023-02-10T10:21:50;36.20;;;16.95;;
43823;SDS011;29470;53.550;9.926;2023-02-10T10:27:08;36.65;;;17.25;;
43823;SDS011;29470;53.550;9.926;2023-02-10T10:32:25;35.97;;;18.30;;
43823;SDS011;29470;53.550;9.926;2023-02-10T10:37:38;38.15;;;17.17;;
43823;SDS011;29470;53.550;9.926;2023-02-10T10:42:43;37.17;;;15.45;;
43823;SDS011;29470;53.550;9.926;2023-02-10T10:47:49;35.63;;;15.93;;
43823;SDS011;29470;53.550;9.926;2023-02-10T10:52:58;38.38;;;15.93;;
43823;SDS011;29470;53.550;9.926;2023-02-10T10:58:09;39.60;;;16.23;;
43823;SDS011;29470;53.550;9.926;2023-02-10T11:03:23;33.28;;;15.27;;
43823;SDS011;29470;53.550;9.926;2023-02-10T11:08:27;29.77;;;15.00;;
43823;SDS011;29470;53.550;9.926;2023-02-10T11:13:34;33.97;;;15.63;;
43823;SDS011;29470;53.550;9.926;2023-02-10T11:18:50;30.17;;;15.30;;
43823;SDS011;29470;53.550;9.926;2023-02-10T11:23:54;31.30;;;15.35;;
43823;SDS011;29470;53.550;9.926;2023-02-10T11:29:07;33.28;;;14.75;;
43823;SDS011;29470;53.550;9.926;2023-02-10T11:34:14;31.13;;;14.20;;
43823;SDS011;29470;53.550;9.926;2023-02-10T11:39:23;29.42;;;13.27;;
43823;SDS011;29470;53.550;9.926;2023-02-10T11:44:32;24.80;;;12.60;;
43823;SDS011;29470;53.550;9.926;2023-02-10T11:49:36;30.50;;;13.48;;
43823;SDS011;29470;53.550;9.926;2023-02-10T11:54:39;29.05;;;12.00;;
43823;SDS011;29470;53.550;9.926;2023-02-10T11:59:46;24.40;;;11.23;;
43823;SDS011;29470;53.550;9.926;2023-02-10T12:05:04;21.80;;;10.13;;
43823;SDS011;29470;53.550;9.926;2023-02-10T12:10:18;22.35;;;8.63;;
43823;SDS011;29470;53.550;9.926;2023-02-10T12:15:32;16.02;;;9.00;;
43823;SDS011;29470;53.550;9.926;2023-02-10T12:20:42;25.60;;;9.93;;
43823;SDS011;29470;53.550;9.926;2023-02-10T12:25:52;51.95;;;11.57;;
43823;SDS011;29470;53.550;9.926;2023-02-10T12:31:05;20.05;;;7.97;;
43823;SDS011;29470;53.550;9.926;2023-02-10T12:36:19;23.25;;;7.90;;
43823;SDS011;29470;53.550;9.926;2023-02-10T12:41:33;17.42;;;8.35;;
43823;SDS011;29470;53.550;9.926;2023-02-10T12:46:53;19.63;;;8.20;;
43823;SDS011;29470;53.550;9.926;2023-02-10T12:52:05;20.05;;;8.00;;
43823;SDS011;29470;53.550;9.926;2023-02-10T12:57:14;19.70;;;8.15;;
43823;SDS011;29470;53.550;9.926;2023-02-10T13:02:25;19.67;;;7.93;;
43823;SDS011;29470;53.550;9.926;2023-02-10T13:07:36;17.42;;;9.10;;
43823;SDS011;29470;53.550;9.926;2023-02-10T13:12:45;18.35;;;8.20;;
43823;SDS011;29470;53.550;9.926;2023-02-10T13:17:51;19.90;;;8.43;;
43823;SDS011;29470;53.550;9.926;2023-02-10T13:22:58;17.13;;;7.43;;
43823;SDS011;29470;53.550;9.926;2023-02-10T13:28:11;19.25;;;7.80;;
43823;SDS011;29470;53.550;9.926;2023-02-10T13:33:24;20.10;;;8.43;;
43823;SDS011;29470;53.550;9.926;2023-02-10T13:38:33;22.67;;;7.72;;
43823;SDS011;29470;53.550;9.926;2023-02-10T13:43:36;19.60;;;8.43;;
43823;SDS011;29470;53.550;9.926;2023-02-10T13:48:40;17.20;;;7.97;;
43823;SDS011;29470;53.550;9.926;2023-02-10T13:53:46;21.88;;;8.30;;
43823;SDS011;29470;53.550;9.926;2023-02-10T13:58:50;15.75;;;6.78;;
43823;SDS011;29470;53.550;9.926;2023-02-10T14:03:56;18.77;;;7.53;;
43823;SDS011;29470;53.550;9.926;2023-02-10T14:09:01;21.17;;;8.85;;
43823;SDS011;29470;53.550;9.926;2023-02-10T14:14:20;18.27;;;8.27;;
43823;SDS011;29470;53.550;9.926;2023-02-10T14:19:29;21.40;;;8.75;;
43823;SDS011;29470;53.550;9.926;2023-02-10T14:24:35;21.30;;;8.20;;
43823;SDS011;29470;53.550;9.926;2023-02-10T14:29:52;22.42;;;9.27;;
43823;SDS011;29470;53.550;9.926;2023-02-10T14:34:59;22.30;;;9.50;;
43823;SDS011;29470;53.550;9.926;2023-02-10T14:40:03;23.75;;;8.68;;
43823;SDS011;29470;53.550;9.926;2023-02-10T14:45:16;25.05;;;8.57;;
43823;SDS011;29470;53.550;9.926;2023-02-10T14:50:24;19.02;;;8.85;;
43823;SDS011;29470;53.550;9.926;2023-02-10T14:55:30;15.73;;;7.70;;
43823;SDS011;29470;53.550;9.926;2023-02-10T15:00:35;20.48;;;8.38;;
43823;SDS011;29470;53.550;9.926;2023-02-10T15:05:43;19.02;;;8.50;;
43823;SDS011;29470;53.550;9.926;2023-02-10T15:10:49;20.58;;;9.10;;
43823;SDS011;29470;53.550;9.926;2023-02-10T15:15:56;23.38;;;9.48;;
43823;SDS011;29470;53.550;9.926;2023-02-10T15:21:02;23.95;;;9.32;;
43823;SDS011;29470;53.550;9.926;2023-02-10T15:26:15;21.98;;;9.57;;
43823;SDS011;29470;53.550;9.926;2023-02-10T15:31:22;23.02;;;9.85;;
43823;SDS011;29470;53.550;9.926;2023-02-10T15:36:30;24.60;;;10.60;;
43823;SDS011;29470;53.550;9.926;2023-02-10T15:41:36;24.67;;;11.52;;
43823;SDS011;29470;53.550;9.926;2023-02-10T15:46:42;23.90;;;10.65;;
43823;SDS011;29470;53.550;9.926;2023-02-10T15:51:47;28.60;;;11.52;;
43823;SDS011;29470;53.550;9.926;2023-02-10T15:56:53;25.20;;;11.20;;
43823;SDS011;29470;53.550;9.926;2023-02-10T16:01:58;25.95;;;11.02;;
43823;SDS011;29470;53.550;9.926;2023-02-10T16:07:04;27.88;;;12.07;;
43823;SDS011;29470;53.550;9.926;2023-02-10T16:12:08;28.35;;;12.65;;
43823;SDS011;29470;53.550;9.926;2023-02-10T16:17:11;31.63;;;14.30;;
43823;SDS011;29470;53.550;9.926;2023-02-10T16:22:23;31.75;;;13.98;;
43823;SDS011;29470;53.550;9.926;2023-02-10T16:27:26;29.65;;;13.73;;
43823;SDS011;29470;53.550;9.926;2023-02-10T16:32:29;31.27;;;13.50;;
43823;SDS011;29470;53.550;9.926;2023-02-10T16:37:33;30.35;;;14.68;;
43823;SDS011;29470;53.550;9.926;2023-02-10T16:42:35;31.30;;;13.98;;
43823;SDS011;29470;53.550;9.926;2023-02-10T16:47:38;28.50;;;14.30;;
43823;SDS011;29470;53.550;9.926;2023-02-10T16:52:43;31.08;;;14.07;;
43823;SDS011;29470;53.550;9.926;2023-02-10T16:57:46;33.92;;;13.40;;
43823;SDS011;29470;53.550;9.926;2023-02-10T17:02:49;31.42;;;14.80;;
43823;SDS011;29470;53.550;9.926;2023-02-10T17:07:53;32.28;;;13.77;;
43823;SDS011;29470;53.550;9.926;2023-02-10T17:12:56;32.13;;;14.38;;
43823;SDS011;29470;53.550;9.926;2023-02-10T17:17:59;32.28;;;14.70;;
43823;SDS011;29470;53.550;9.926;2023-02-10T17:23:03;24.55;;;13.55;;
43823;SDS011;29470;53.550;9.926;2023-02-10T17:28:07;29.02;;;12.68;;
43823;SDS011;29470;53.550;9.926;2023-02-10T17:33:16;33.03;;;13.07;;
43823;SDS011;29470;53.550;9.926;2023-02-10T17:38:27;28.02;;;13.40;;
43823;SDS011;29470;53.550;9.926;2023-02-10T17:43:47;28.23;;;13.20;;
43823;SDS011;29470;53.550;9.926;2023-02-10T17:48:50;30.10;;;14.43;;
43823;SDS011;29470;53.550;9.926;2023-02-10T17:53:54;32.22;;;13.43;;
43823;SDS011;29470;53.550;9.926;2023-02-10T17:58:57;33.65;;;13.30;;
43823;SDS011;29470;53.550;9.926;2023-02-10T18:04:00;32.20;;;13.27;;
43823;SDS011;29470;53.550;9.926;2023-02-10T18:09:04;23.08;;;12.38;;
43823;SDS011;29470;53.550;9.926;2023-02-10T18:14:07;26.70;;;12.48;;
43823;SDS011;29470;53.550;9.926;2023-02-10T18:19:10;25.23;;;11.57;;
43823;SDS011;29470;53.550;9.926;2023-02-10T18:24:14;27.60;;;11.63;;
43823;SDS011;29470;53.550;9.926;2023-02-10T18:29:17;27.15;;;11.55;;
43823;SDS011;29470;53.550;9.926;2023-02-10T18:34:20;27.10;;;10.93;;
43823;SDS011;29470;53.550;9.926;2023-02-10T18:39:24;36.13;;;13.35;;
43823;SDS011;29470;53.550;9.926;2023-02-10T18:44:29;28.45;;;11.90;;
43823;SDS011;29470;53.550;9.926;2023-02-10T18:49:33;34.45;;;11.57;;
43823;SDS011;29470;53.550;9.926;2023-02-10T18:54:37;31.02;;;12.25;;
43823;SDS011;29470;53.550;9.926;2023-02-10T18:59:40;30.98;;;10.40;;
43823;SDS011;29470;53.550;9.926;2023-02-10T19:04:45;27.70;;;10.82;;
43823;SDS011;29470;53.550;9.926;2023-02-10T19:09:50;21.80;;;10.05;;
43823;SDS011;29470;53.550;9.926;2023-02-10T19:14:54;26.17;;;11.93;;
43823;SDS011;29470;53.550;9.926;2023-02-10T19:19:57;29.52;;;12.15;;
43823;SDS011;29470;53.550;9.926;2023-02-10T19:25:01;29.95;;;11.85;;
43823;SDS011;29470;53.550;9.926;2023-02-10T19:35:53;29.10;;;12.43;;
43823;SDS011;29470;53.550;9.926;2023-02-10T19:41:07;31.02;;;11.45;;
43823;SDS011;29470;53.550;9.926;2023-02-10T19:46:13;27.20;;;12.88;;
43823;SDS011;29470;53.550;9.926;2023-02-10T19:56:50;27.83;;;12.80;;
43823;SDS011;29470;53.550;9.926;2023-02-10T20:01:53;28.95;;;11.68;;
43823;SDS011;29470;53.550;9.926;2023-02-10T20:06:56;29.42;;;12.15;;
43823;SDS011;29470;53.550;9.926;2023-02-10T20:12:00;29.35;;;10.80;;
43823;SDS011;29470;53.550;9.926;2023-02-10T20:17:03;30.88;;;11.52;;
43823;SDS011;29470;53.550;9.926;2023-02-10T20:22:06;29.55;;;12.18;;
43823;SDS011;29470;53.550;9.926;2023-02-10T20:27:11;31.17;;;11.70;;
43823;SDS011;29470;53.550;9.926;2023-02-10T20:32:14;33.40;;;12.60;;
43823;SDS011;29470;53.550;9.926;2023-02-10T20:37:17;36.38;;;13.20;;
43823;SDS011;29470;53.550;9.926;2023-02-10T20:42:21;35.33;;;12.65;;
43823;SDS011;29470;53.550;9.926;2023-02-10T20:47:25;35.90;;;13.43;;
43823;SDS011;29470;53.550;9.926;2023-02-10T20:53:39;34.78;;;13.30;;
43823;SDS011;29470;53.550;9.926;2023-02-10T20:58:45;38.58;;;14.25;;
43823;SDS011;29470;53.550;9.926;2023-02-10T21:03:48;36.20;;;14.13;;
43823;SDS011;29470;53.550;9.926;2023-02-10T21:08:51;40.95;;;15.30;;
43823;SDS011;29470;53.550;9.926;2023-02-10T21:13:57;38.53;;;15.90;;
43823;SDS011;29470;53.550;9.926;2023-02-10T21:19:00;44.90;;;16.20;;
43823;SDS011;29470;53.550;9.926;2023-02-10T21:24:03;39.03;;;15.68;;
43823;SDS011;29470;53.550;9.926;2023-02-10T21:29:08;40.30;;;15.98;;
43823;SDS011;29470;53.550;9.926;2023-02-10T21:34:11;44.38;;;17.15;;
43823;SDS011;29470;53.550;9.926;2023-02-10T21:39:16;45.20;;;17.73;;
43823;SDS011;29470;53.550;9.926;2023-02-10T21:44:21;43.80;;;17.60;;
43823;SDS011;29470;53.550;9.926;2023-02-10T21:49:26;42.85;;;17.30;;
43823;SDS011;29470;53.550;9.926;2023-02-10T21:54:30;46.20;;;17.13;;
43823;SDS011;29470;53.550;9.926;2023-02-10T21:59:34;49.33;;;18.20;;
43823;SDS011;29470;53.550;9.926;2023-02-10T22:04:37;46.15;;;19.63;;
43823;SDS011;29470;53.550;9.926;2023-02-10T22:09:40;46.88;;;18.60;;
43823;SDS011;29470;53.550;9.926;2023-02-10T22:14:45;48.20;;;20.15;;
43823;SDS011;29470;53.550;9.926;2023-02-10T22:19:48;51.92;;;19.85;;
43823;SDS011;29470;53.550;9.926;2023-02-10T22:24:50;47.40;;;19.67;;
43823;SDS011;29470;53.550;9.926;2023-02-10T22:29:55;48.25;;;20.48;;
43823;SDS011;29470;53.550;9.926;2023-02-10T22:34:59;49.88;;;21.42;;
43823;SDS011;29470;53.550;9.926;2023-02-10T22:40:02;53.10;;;22.35;;
43823;SDS011;29470;53.550;9.926;2023-02-10T22:45:08;51.47;;;22.25;;
43823;SDS011;29470;53.550;9.926;2023-02-10T22:50:11;52.90;;;22.00;;
43823;SDS011;29470;53.550;9.926;2023-02-10T22:55:15;54.90;;;22.35;;
43823;SDS011;29470;53.550;9.926;2023-02-10T23:00:21;55.10;;;22.48;;
43823;SDS011;29470;53.550;9.926;2023-02-10T23:05:26;48.35;;;20.55;;
43823;SDS011;29470;53.550;9.926;2023-02-10T23:10:29;47.03;;;20.88;;
43823;SDS011;29470;53.550;9.926;2023-02-10T23:15:34;50.17;;;20.42;;
43823;SDS011;29470;53.550;9.926;2023-02-10T23:20:37;51.88;;;21.13;;
43823;SDS011;29470;53.550;9.926;2023-02-10T23:25:44;56.47;;;21.50;;
43823;SDS011;29470;53.550;9.926;2023-02-10T23:30:48;45.17;;;20.60;;
43823;SDS011;29470;53.550;9.926;2023-02-10T23:35:51;47.83;;;21.50;;
43823;SDS011;29470;53.550;9.926;2023-02-10T23:40:54;43.83;;;20.35;;
43823;SDS011;29470;53.550;9.926;2023-02-10T23:45:58;46.78;;;19.85;;
43823;SDS011;29470;53.550;9.926;2023-02-10T23:51:05;44.38;;;19.75;;
43823;SDS011;29470;53.550;9.926;2023-02-10T23:56:09;48.78;;;20.08;;
